Latest Weather Observations for Renmark Airport

IDS60801

Issued at 4:02 pm CST Thursday 28 July 2016 (issued every 30 minutes, with the page automatically refreshed every 10 minutes)

About weather observations | Map of weather stations | Latest weather observations for SA | Other Formats
Station Details ID: 024048 Name: RENMARK AERO Lat: -34.20 Lon: 140.68 Height: 31.5 m
Data from the previous 72 hours. | See also: Recent months at Renmark Airport
Date/Time
CST
Temp
°C
App
Temp
°C
Dew
Point
°C
Rel
Hum
%
Delta-T
°C
Wind Press
QNH
hPa
Press
MSL
hPa
Rain since
9am
mm
Dir  Spd
km/h
Gust
km/h
Spd
kts
Gust
kts
28/04:00pm 12.9 8.7 5.6 61 3.4 W 17 20 9 11 1027.5 1027.5 0.0
28/03:30pm 12.9 9.1 5.8 62 3.3 W 15 20 8 11 1027.4 1027.4 0.0
28/03:00pm 12.8 8.6 5.7 62 3.3 W 17 24 9 13 1027.5 1027.5 0.0
28/02:30pm 12.9 9.1 5.6 61 3.4 W 15 20 8 11 1027.4 1027.4 0.0
28/02:00pm 13.0 9.2 5.7 61 3.4 WNW 15 22 8 12 1027.5 1027.5 0.0
28/01:30pm 12.6 8.0 5.8 63 3.2 WNW 19 24 10 13 1027.9 1027.9 0.0
28/01:00pm 12.5 9.1 6.1 65 3.0 W 13 19 7 10 1028.3 1028.3 0.0
28/12:30pm 12.4 8.6 5.6 63 3.1 W 15 24 8 13 1028.8 1028.8 0.0
28/12:00pm 12.5 8.6 5.4 62 3.3 WNW 15 19 8 10 1029.2 1029.2 0.0
28/11:30am 12.6 9.0 5.1 60 3.4 WSW 13 19 7 10 1029.5 1029.5 0.0
28/11:00am 12.1 8.4 4.6 60 3.4 WNW 13 22 7 12 1030.0 1030.1 0.0
28/10:30am 12.1 7.7 4.6 60 3.4 WNW 17 22 9 12 1030.1 1030.2 0.0
28/10:00am 12.1 8.1 4.8 61 3.3 WNW 15 22 8 12 1030.2 1030.3 0.0
28/09:30am 11.8 8.2 5.2 64 3.0 NW 13 17 7 9 1030.3 1030.4 0.0
28/09:00am 11.2 8.1 5.5 68 2.6 NW 11 15 6 8 1030.0 1030.1 0.0
28/08:30am 10.5 7.8 5.7 72 2.2 NW 9 13 5 7 1029.7 1029.8 0.0
28/08:00am 9.9 6.8 5.7 75 1.9 NW 11 15 6 8 1029.5 1029.5 0.0
28/07:30am 9.2 6.5 5.8 79 1.5 WNW 9 13 5 7 1029.2 1029.2 0.0
28/07:00am 9.0 6.7 5.7 80 1.5 W 7 11 4 6 1028.9 1028.9 0.0
28/06:30am 8.7 6.4 5.8 82 1.3 W 7 9 4 5 1028.5 1028.5 0.0
28/06:00am 8.6 6.0 5.9 83 1.2 W 9 11 5 6 1028.2 1028.2 0.0
28/05:30am 8.3 6.0 5.9 85 1.1 WSW 7 11 4 6 1028.0 1028.0 0.0
28/05:00am 8.3 5.7 6.1 86 1.0 W 9 13 5 7 1027.8 1027.8 0.0
28/04:30am 8.2 5.6 6.3 88 0.9 WNW 9 11 5 6 1027.8 1027.8 0.0
28/04:00am 7.9 5.7 6.0 88 0.9 WSW 7 11 4 6 1027.5 1027.5 0.0
28/03:30am 7.8 5.6 6.1 89 0.8 WSW 7 9 4 5 1027.7 1027.7 0.0
28/03:00am 7.9 5.7 6.2 89 0.8 WSW 7 9 4 5 1027.8 1027.8 0.0
28/02:30am 7.6 5.0 6.2 91 0.6 WNW 9 11 5 6 1027.7 1027.7 0.0
28/02:00am 7.3 5.1 6.1 92 0.5 W 7 9 4 5 1027.6 1027.6 0.0
28/01:30am 6.2 3.6 5.9 98 0.1 W 9 11 5 6 1027.6 1027.6 0.0
28/01:00am 5.6 2.8 5.3 98 0.1 WNW 9 13 5 7 1027.5 1027.5 0.0
28/12:30am 5.1 2.1 4.1 93 0.4 W 9 11 5 6 1027.5 1027.5 0.0
28/12:00am 5.7 2.7 4.3 91 0.6 WNW 9 9 5 5 1027.6 1027.6 0.0
 
Date/Time
CST
Temp
°C
App
Temp
°C
Dew
Point
°C
Rel
Hum
%
Delta-T
°C
Wind Press
QNH
hPa
Press
MSL
hPa
Rain since
9am
mm
Dir  Spd
km/h
Gust
km/h
Spd
kts
Gust
kts
27/11:30pm 6.1 2.8 4.4 89 0.7 W 11 13 6 7 1027.6 1027.6 0.0
27/11:00pm 6.6 3.4 4.9 89 0.7 WNW 11 13 6 7 1027.6 1027.6 0.0
27/10:30pm 6.7 3.9 5.3 91 0.6 WNW 9 11 5 6 1027.5 1027.5 0.0
27/10:00pm 6.8 4.5 5.0 88 0.8 WNW 6 9 3 5 1027.6 1027.6 0.0
27/09:30pm 7.9 5.6 4.8 81 1.4 WNW 6 7 3 4 1027.5 1027.5 0.0
27/09:00pm 8.6 6.1 5.0 78 1.6 W 7 9 4 5 1027.5 1027.5 0.0
27/08:30pm 9.1 6.3 5.1 76 1.8 W 9 11 5 6 1027.4 1027.4 0.0
27/08:00pm 7.8 5.4 5.4 85 1.1 SW 7 9 4 5 1027.3 1027.3 0.0
27/07:30pm 8.2 5.7 4.6 78 1.6 SW 7 9 4 5 1026.8 1026.8 0.0
27/07:00pm 8.6 6.2 4.4 75 1.8 WSW 6 7 3 4 1026.5 1026.5 0.0
27/06:30pm 9.5 7.0 4.7 72 2.1 SW 7 9 4 5 1026.0 1026.0 0.0
27/06:00pm 10.8 8.3 4.7 66 2.7 SSW 7 9 4 5 1025.5 1025.5 0.0
27/05:30pm 11.7 8.3 4.2 60 3.4 SSW 11 15 6 8 1025.1 1025.1 0.0
27/05:00pm 13.0 9.2 3.9 54 4.1 SW 13 22 7 12 1024.9 1024.9 0.0
27/04:30pm 13.5 8.4 3.3 50 4.5 SSW 19 26 10 14 1024.6 1024.6 0.0
27/04:00pm 13.6 9.3 3.4 50 4.6 SW 15 22 8 12 1024.4 1024.4 0.0
27/03:30pm 14.6 9.4 3.7 48 4.9 SW 20 28 11 15 1024.1 1024.1 0.0
27/03:00pm 13.8 8.7 3.9 51 4.5 SW 20 28 11 15 1023.7 1023.7 0.0
27/02:30pm 13.5 8.7 4.4 54 4.2 SW 19 24 10 13 1023.5 1023.5 0.0
27/02:00pm 14.0 8.1 4.0 51 4.6 SW 24 32 13 17 1023.3 1023.3 0.0
27/01:30pm 13.6 8.1 4.2 53 4.3 SW 22 35 12 19 1023.1 1023.1 0.0
27/01:00pm 13.4 7.6 4.3 54 4.2 SSW 24 33 13 18 1022.9 1022.9 0.0
27/12:30pm 12.8 7.8 4.5 57 3.8 SSW 20 30 11 16 1022.9 1022.9 0.0
27/12:00pm 12.9 7.4 4.1 55 4.0 SSW 22 35 12 19 1023.1 1023.1 0.0
27/11:30am 12.9 7.1 4.3 56 3.9 SSW 24 37 13 20 1023.0 1023.0 0.0
27/11:00am 12.8 7.1 5.0 59 3.6 SSW 24 35 13 19 1022.6 1022.6 0.0
27/10:30am 12.6 7.9 6.2 65 3.0 SSW 20 30 11 16 1022.6 1022.6 0.0
27/10:00am 12.0 7.4 6.3 68 2.7 SSW 20 35 11 19 1022.3 1022.3 0.0
27/09:30am 11.6 7.3 6.9 73 2.2 SW 19 24 10 13 1021.7 1021.7 0.0
27/09:00am 11.0 6.8 7.5 79 1.7 SW 19 26 10 14 1021.0 1021.0 0.8
27/08:30am 10.8 7.2 8.2 84 1.3 SW 17 24 9 13 1020.2 1020.2 0.8
27/08:00am 9.9 6.4 8.7 92 0.6 SW 17 24 9 13 1019.7 1019.7 0.8
27/07:30am 9.5 5.5 8.3 92 0.6 WSW 19 24 10 13 1019.2 1019.2 0.8
27/07:00am 9.6 5.5 8.7 94 0.4 SW 20 26 11 14 1018.6 1018.6 0.8
27/06:30am 9.8 3.7 8.4 91 0.7 SW 30 48 16 26 1017.9 1017.9 0.8
27/06:21am 10.0 4.1 7.6 85 1.1 WSW 28 46 15 25 1017.6 1017.6 0.8
27/06:00am 9.4 4.7 7.7 89 0.8 WSW 22 28 12 15 1017.1 1017.1 0.8
27/05:30am 9.0 4.7 7.9 93 0.5 WSW 20 26 11 14 1016.5 1016.5 0.8
27/05:00am 8.5 4.9 8.5 100 0.0 W 17 24 9 13 1015.8 1015.8 0.8
27/04:30am 7.8 4.4 7.8 100 0.0 W 15 20 8 11 1015.5 1015.5 0.8
27/04:00am 7.7 4.3 7.7 100 0.0 W 15 20 8 11 1015.0 1015.1 0.8
27/03:30am 8.1 5.2 8.1 100 0.0 W 13 17 7 9 1014.8 1014.9 0.8
27/03:00am 8.6 5.1 8.6 100 0.0 W 17 24 9 13 1014.4 1014.5 0.8
27/02:30am 9.0 5.1 8.6 97 0.2 WNW 19 24 10 13 1014.2 1014.3 0.8
27/02:00am 9.1 5.1 8.3 95 0.4 W 19 24 10 13 1013.9 1014.0 0.8
27/01:30am 9.7 5.5 8.1 90 0.8 W 20 28 11 15 1013.6 1013.7 0.8
27/01:00am 10.0 5.4 8.3 89 0.8 W 22 30 12 16 1013.3 1013.4 0.8
27/12:30am 10.3 5.6 7.9 85 1.2 W 22 32 12 17 1013.1 1013.2 0.8
27/12:00am 10.2 5.3 8.3 88 0.9 W 24 32 13 17 1012.9 1013.0 0.8
 
Date/Time
CST
Temp
°C
App
Temp
°C
Dew
Point
°C
Rel
Hum
%
Delta-T
°C
Wind Press
QNH
hPa
Press
MSL
hPa
Rain since
9am
mm
Dir  Spd
km/h
Gust
km/h
Spd
kts
Gust
kts
26/11:30pm 10.3 5.4 8.4 88 0.9 WNW 24 32 13 17 1012.4 1012.5 0.8
26/11:00pm 10.6 6.1 8.4 86 1.1 W 22 37 12 20 1012.0 1012.1 0.8
26/10:30pm 10.6 5.7 8.5 87 1.0 W 24 35 13 19 1011.7 1011.8 0.8
26/10:00pm 10.7 5.2 9.1 90 0.8 W 28 41 15 22 1011.5 1011.6 0.8
26/09:30pm 10.9 4.2 9.7 92 0.6 WNW 35 48 19 26 1011.1 1011.2 0.8
26/09:07pm 11.6 4.6 8.3 80 1.6 WNW 35 54 19 29 1010.6 1010.7 0.8
26/09:00pm 11.7 5.2 8.0 78 1.8 WNW 32 44 17 24 1010.3 1010.4 0.8
26/08:30pm 12.0 5.6 6.9 71 2.4 NW 30 43 16 23 1009.9 1010.0 0.8
26/08:00pm 11.7 5.7 7.2 74 2.2 NW 28 39 15 21 1010.1 1010.2 0.8
26/07:30pm 11.4 5.9 7.5 77 1.9 NNW 26 35 14 19 1010.2 1010.3 0.8
26/07:00pm 11.2 4.5 7.3 77 1.9 NNW 32 41 17 22 1010.0 1010.1 0.8
26/06:30pm 10.9 5.2 6.8 76 1.9 NNW 26 35 14 19 1010.7 1010.8 0.8
26/06:00pm 10.7 6.2 6.8 77 1.8 NNW 20 28 11 15 1011.1 1011.2 0.8
26/05:30pm 10.4 6.0 7.5 82 1.4 NNW 20 28 11 15 1011.4 1011.5 0.6
26/05:00pm 10.5 5.2 7.0 79 1.7 NW 24 33 13 18 1011.8 1011.9 0.6
26/04:30pm 12.4 5.6 3.1 53 4.1 NW 28 39 15 21 1011.7 1011.8 0.0
26/04:00pm 13.0 5.3 2.3 48 4.7 NW 32 46 17 25 1012.1 1012.2 0.0
26/03:30pm 13.4 6.0 1.7 45 5.1 NW 30 43 16 23 1012.5 1012.6 0.0
26/03:00pm 13.0 5.9 3.7 53 4.2 WNW 30 44 16 24 1013.1 1013.2 0.0
26/02:39pm 12.4 4.8 4.1 57 3.7 WNW 33 52 18 28 1013.5 1013.6 0.0
26/02:30pm 12.5 4.4 3.5 54 4.0 NW 35 52 19 28 1013.5 1013.6 0.0
26/02:00pm 12.7 6.2 2.6 50 4.4 NW 26 39 14 21 1013.7 1013.8 0.0
26/01:30pm 12.8 5.4 2.1 48 4.6 NW 30 39 16 21 1014.1 1014.2 0.0
26/01:00pm 13.1 5.2 2.1 47 4.8 NW 33 52 18 28 1014.7 1014.8 0.0
26/12:30pm 12.9 4.9 1.6 46 4.8 NW 33 46 18 25 1015.2 1015.3 0.0
26/12:00pm 12.9 5.6 2.5 49 4.5 WNW 30 43 16 23 1015.7 1015.7 0.0
26/11:30am 13.0 6.1 2.6 49 4.6 NW 28 43 15 23 1016.2 1016.2 0.0
26/11:00am 12.8 6.1 3.5 53 4.2 WNW 28 37 15 20 1016.8 1016.8 0.0
26/10:30am 12.4 7.1 4.9 60 3.4 NW 22 30 12 16 1017.3 1017.3 0.0
26/10:00am 11.6 5.9 4.8 63 3.1 WNW 24 32 13 17 1017.4 1017.4 0.0
26/09:30am 11.0 6.4 5.7 70 2.4 WNW 19 26 10 14 1017.5 1017.5 0.0
26/09:00am 8.8 4.2 5.4 79 1.5 NW 19 24 10 13 1017.7 1017.7 0.4
26/08:30am 7.2 2.6 5.8 91 0.6 NW 19 24 10 13 1017.6 1017.6 0.4
26/08:00am 5.6 1.8 5.6 100 0.0 NW 15 19 8 10 1017.6 1017.6 0.4
26/07:30am 4.9 0.9 4.9 100 0.0 NW 15 19 8 10 1017.5 1017.5 0.4
26/07:00am 4.6 0.5 4.6 100 0.0 NW 15 17 8 9 1017.4 1017.4 0.4
26/06:30am 4.6 0.5 4.6 100 0.0 NW 15 19 8 10 1016.9 1016.9 0.4
26/06:00am 5.3 1.0 5.3 100 0.0 NW 17 20 9 11 1016.6 1016.6 0.4
26/05:30am 5.4 1.1 5.4 100 0.0 NW 17 20 9 11 1016.6 1016.6 0.4
26/05:00am 5.0 1.0 5.0 100 0.0 NW 15 19 8 10 1016.5 1016.5 0.4
26/04:30am 5.4 1.1 5.4 100 0.0 NW 17 20 9 11 1016.5 1016.5 0.4
26/04:00am 4.1 1.0 3.8 98 0.1 NW 9 13 5 7 1016.4 1016.4 0.4
26/03:30am 5.4 1.4 5.0 97 0.2 WNW 15 20 8 11 1016.5 1016.5 0.4
26/03:00am 4.7 1.0 4.6 99 0.0 WNW 13 17 7 9 1016.6 1016.6 0.4
26/02:30am 5.4 2.1 4.8 96 0.3 WNW 11 15 6 8 1016.8 1016.8 0.4
26/02:00am 5.9 2.7 5.0 94 0.4 W 11 13 6 7 1016.9 1016.9 0.4
26/01:30am 6.3 2.2 6.0 98 0.1 NW 17 20 9 11 1017.1 1017.1 0.4
26/01:00am 6.1 3.3 5.1 93 0.4 NW 9 11 5 6 1017.1 1017.1 0.4
26/12:30am 7.1 4.5 5.9 92 0.5 W 9 11 5 6 1016.9 1016.9 0.2
26/12:00am 7.7 4.4 6.2 90 0.7 WNW 13 15 7 8 1017.0 1017.0 0.2
 
Date/Time
CST
Temp
°C
App
Temp
°C
Dew
Point
°C
Rel
Hum
%
Delta-T
°C
Wind Press
QNH
hPa
Press
MSL
hPa
Rain since
9am
mm
Dir  Spd
km/h
Gust
km/h
Spd
kts
Gust
kts
25/11:30pm 8.4 4.9 7.2 92 0.6 W 15 17 8 9 1017.0 1017.0 0.2
25/11:00pm 8.6 6.2 8.6 100 0.0 NW 11 15 6 8 1016.7 1016.7 0.2
25/10:30pm 9.4 7.2 9.4 100 0.0 NW 11 13 6 7 1016.7 1016.7 0.2
25/10:00pm 9.7 7.0 9.1 96 0.3 W 13 17 7 9 1016.6 1016.6 0.2
25/09:30pm 10.2 7.1 8.8 91 0.7 W 15 20 8 11 1016.4 1016.4 0.2
25/09:00pm 11.2 7.5 9.5 89 0.9 W 19 22 10 12 1016.0 1016.0 0.2
25/08:30pm 11.3 8.2 10.4 94 0.5 W 17 26 9 14 1015.7 1015.7 0.2
25/08:00pm 11.6 8.3 10.8 95 0.4 W 19 26 10 14 1015.5 1015.5 0.2
25/07:30pm 11.5 7.4 11.5 100 0.0 W 24 30 13 16 1015.1 1015.2 0.2
25/07:00pm 11.5 6.7 11.5 100 0.0 WNW 28 37 15 20 1014.6 1014.7 0.2
25/06:30pm 13.3 6.7 8.4 72 2.4 W 33 46 18 25 1014.1 1014.2 0.0
25/06:00pm 14.7 6.4 6.0 56 4.2 WNW 39 61 21 33 1013.1 1013.2 0.0
25/05:46pm 14.9 6.9 5.7 54 4.4 WNW 37 56 20 30 1012.8 1012.9 0.0
25/05:30pm 15.0 7.3 5.5 53 4.5 WNW 35 52 19 28 1012.7 1012.8 0.0
25/05:00pm 15.3 6.9 5.5 52 4.7 WNW 39 61 21 33 1012.7 1012.8 0.0
25/04:45pm 15.5 6.7 5.4 51 4.8 WNW 41 65 22 35 1012.6 1012.7 0.0
25/04:30pm 15.2 7.9 5.4 52 4.7 NW 33 50 18 27 1012.5 1012.6 0.0
25/04:04pm 15.2 7.8 5.1 51 4.8 NW 33 52 18 28 1012.8 1012.9 0.0

Other Formats:

Comma delimited format used in spreadsheet applications
http://www.bom.gov.au/fwo/IDS60801/IDS60801.95687.axf

JavaScript Object Notation format (JSON) in row-major order
http://www.bom.gov.au/fwo/IDS60801/IDS60801.95687.json